Time;durP1;ratioP1;P1;durP2;ratioP2;P2;SDS_P1;SDS_P2;PMS_P1;PMS_P2;Temp;Humidity;BMP_temperature;BMP_pressure;BME280_temperature;BME280_humidity;BME280_pressure;Samples;Min_cycle;Max_cycle;Signal;HPM_P1;HPM_P2
2022/06/13 00:01:46;;;;;;;14.97;5.13;;;13.00;94.90;;;;;;5038666;28;20316;-79
2022/06/13 00:04:12;;;;;;;21.47;5.23;;;13.00;96.00;;;;;;5038570;28;20212;-79
2022/06/13 00:06:39;;;;;;;15.73;5.70;;;12.90;96.10;;;;;;5019512;28;20225;-77
2022/06/13 00:09:07;;;;;;;16.77;5.57;;;12.80;96.30;;;;;;5038256;28;20209;-77
2022/06/13 00:11:34;;;;;;;16.37;5.60;;;12.70;95.60;;;;;;5036536;28;20706;-78
2022/06/13 00:14:02;;;;;;;18.57;5.50;;;12.70;96.60;;;;;;5037978;28;20233;-78
2022/06/13 00:16:30;;;;;;;12.73;5.57;;;12.60;96.80;;;;;;5038783;28;20637;-77
2022/06/13 00:18:57;;;;;;;17.27;5.63;;;11.70;96.60;;;;;;5038098;28;20254;-78
2022/06/13 00:21:27;;;;;;;16.50;5.80;;;12.50;96.90;;;;;;5038326;28;20239;-78
2022/06/13 00:23:55;;;;;;;17.97;5.03;;;12.60;97.50;;;;;;5037789;28;20364;-78
2022/06/13 00:26:24;;;;;;;13.17;5.37;;;12.50;97.70;;;;;;5037009;28;20205;-78
2022/06/13 00:28:52;;;;;;;18.97;5.73;;;12.50;97.90;;;;;;5036652;28;20218;-78
2022/06/13 00:31:20;;;;;;;16.90;5.60;;;12.40;98.10;;;;;;5037379;28;20292;-78
2022/06/13 00:33:48;;;;;;;17.97;6.07;;;12.30;98.30;;;;;;5037504;28;20706;-78
2022/06/13 00:36:16;;;;;;;16.77;5.80;;;12.30;98.60;;;;;;5037763;28;20656;-77
2022/06/13 00:38:44;;;;;;;14.40;5.30;;;12.30;98.80;;;;;;5038878;28;20707;-78
2022/06/13 00:41:13;;;;;;;13.57;4.93;;;12.30;99.00;;;;;;5047815;28;20198;-77
2022/06/13 00:43:41;;;;;;;14.53;5.43;;;12.20;99.30;;;;;;5029167;28;20228;-77
2022/06/13 00:46:21;;;;;;;15.27;5.70;;;12.20;99.50;;;;;;5043326;28;20209;-78
2022/06/13 00:48:52;;;;;;;16.83;5.63;;;12.20;99.80;;;;;;5041959;28;20223;-77
2022/06/13 00:51:20;;;;;;;14.80;5.80;;;12.00;99.90;;;;;;5041658;28;20204;-78
2022/06/13 00:53:47;;;;;;;16.17;5.90;;;12.00;99.90;;;;;;5024723;28;20252;-77
2022/06/13 00:56:17;;;;;;;14.10;5.87;;;12.00;99.90;;;;;;5042423;28;20316;-78
2022/06/13 00:58:48;;;;;;;13.60;5.80;;;12.00;99.90;;;;;;5041500;28;20217;-77
2022/06/13 01:01:15;;;;;;;16.27;5.03;;;11.90;99.90;;;;;;5042213;28;20218;-77
2022/06/13 01:03:43;;;;;;;15.67;6.50;;;11.80;99.90;;;;;;5041554;28;20233;-77
2022/06/13 01:06:12;;;;;;;12.23;5.27;;;11.80;99.90;;;;;;5041731;28;20217;-77
2022/06/13 01:08:40;;;;;;;16.47;6.17;;;11.80;99.90;;;;;;5039953;28;20275;-77
2022/06/13 01:11:16;;;;;;;16.00;5.83;;;11.80;99.90;;;;;;5040988;28;20210;-78
2022/06/13 01:14:23;;;;;;;19.40;7.00;;;10.30;99.90;;;;;;5041947;28;20578;-77
2022/06/13 01:17:07;;;;;;;20.53;6.63;;;11.70;99.90;;;;;;5040114;28;20928;-78
2022/06/13 01:20:10;;;;;;;16.20;5.73;;;11.70;99.90;;;;;;5042240;28;20229;-78
2022/06/13 01:23:09;;;;;;;18.47;5.80;;;11.60;99.90;;;;;;5035042;28;20240;-78
2022/06/13 01:25:50;;;;;;;18.80;6.70;;;11.60;99.90;;;;;;5027148;28;20221;-78
2022/06/13 01:28:50;;;;;;;19.13;6.43;;;11.50;99.90;;;;;;5041814;28;20209;-78
2022/06/13 01:31:28;;;;;;;13.97;6.63;;;11.50;99.90;;;;;;5047248;28;20220;-78
2022/06/13 01:34:04;;;;;;;14.53;6.13;;;11.50;99.90;;;;;;5056240;28;20208;-79
2022/06/13 01:36:40;;;;;;;14.37;5.87;;;11.50;99.90;;;;;;5056159;28;20256;-78
2022/06/13 01:39:21;;;;;;;16.70;6.20;;;11.60;99.90;;;;;;5039704;28;20216;-78
2022/06/13 01:42:01;;;;;;;17.50;6.27;;;11.70;99.90;;;;;;5037891;28;20224;-79
2022/06/13 01:44:36;;;;;;;20.23;7.43;;;11.70;99.90;;;;;;5037570;28;20209;-78
2022/06/13 01:47:09;;;;;;;18.23;6.87;;;11.80;99.90;;;;;;5035934;28;20209;-78
2022/06/13 01:49:47;;;;;;;18.87;6.87;;;11.90;99.90;;;;;;5036869;28;20299;-78
2022/06/13 01:52:25;;;;;;;15.40;6.10;;;12.10;99.90;;;;;;5037580;28;20869;-78
2022/06/13 01:54:58;;;;;;;18.20;6.80;;;12.10;99.90;;;;;;5037041;28;20312;-78
2022/06/13 01:57:32;;;;;;;13.03;6.07;;;12.20;99.90;;;;;;5035387;28;20697;-78
2022/06/13 02:00:07;;;;;;;13.73;6.30;;;12.30;99.90;;;;;;5037519;28;20223;-78
2022/06/13 02:02:41;;;;;;;16.33;5.63;;;12.30;99.90;;;;;;5036648;28;20242;-78
2022/06/13 02:05:14;;;;;;;15.03;6.00;;;12.30;99.90;;;;;;5037533;28;21535;-78
2022/06/13 02:07:45;;;;;;;16.83;5.80;;;12.30;99.90;;;;;;5036802;28;20279;-78
2022/06/13 02:10:18;;;;;;;15.60;5.60;;;12.30;99.90;;;;;;5040624;28;20564;-78
2022/06/13 02:12:50;;;;;;;16.87;6.23;;;12.30;99.90;;;;;;5040317;28;20261;-78
2022/06/13 02:15:22;;;;;;;19.63;6.20;;;12.30;99.90;;;;;;5040509;28;20613;-78
2022/06/13 02:17:55;;;;;;;14.60;6.10;;;12.30;99.90;;;;;;5039642;28;20206;-78
2022/06/13 02:20:26;;;;;;;15.67;5.87;;;12.20;99.90;;;;;;5040960;28;20566;-78
2022/06/13 02:22:56;;;;;;;16.73;6.00;;;12.20;99.90;;;;;;5040093;28;20903;-77
2022/06/13 02:25:28;;;;;;;16.00;5.97;;;12.10;99.90;;;;;;5052483;28;20201;-77
2022/06/13 02:27:58;;;;;;;17.00;6.30;;;12.10;99.90;;;;;;5056210;28;20192;-77
2022/06/13 02:30:37;;;;;;;15.53;5.87;;;12.10;99.90;;;;;;5043945;28;20213;-77
2022/06/13 02:33:09;;;;;;;16.20;6.30;;;11.20;99.90;;;;;;5041581;28;20236;-77
2022/06/13 02:35:40;;;;;;;16.43;6.10;;;12.10;99.90;;;;;;5040010;28;20231;-78
2022/06/13 02:38:11;;;;;;;17.17;6.07;;;12.10;99.90;;;;;;5038445;28;20212;-78
2022/06/13 02:40:44;;;;;;;16.90;6.00;;;12.10;99.90;;;;;;5039497;28;20272;-78
2022/06/13 02:43:16;;;;;;;14.50;5.83;;;12.10;99.90;;;;;;5039503;28;20229;-78
2022/06/13 02:45:47;;;;;;;13.17;6.00;;;12.10;99.90;;;;;;5039897;28;20209;-79
2022/06/13 02:48:23;;;;;;;14.93;5.90;;;12.10;99.90;;;;;;5038471;28;20300;-78
2022/06/13 02:50:57;;;;;;;18.23;6.37;;;12.10;99.90;;;;;;5039351;28;20247;-78
2022/06/13 02:53:30;;;;;;;15.43;5.70;;;12.10;99.90;;;;;;5039465;28;20243;-78
2022/06/13 02:56:07;;;;;;;15.57;5.87;;;12.10;99.90;;;;;;5022531;28;20243;-78
2022/06/13 02:58:38;;;;;;;16.53;6.40;;;12.20;99.90;;;;;;5049163;28;20337;-79
2022/06/13 03:01:11;;;;;;;15.07;6.07;;;12.20;99.90;;;;;;5042136;28;20209;-79
2022/06/13 03:03:52;;;;;;;18.15;6.35;;;12.30;99.90;;;;;;5040108;28;20229;-78
2022/06/13 03:06:26;;;;;;;13.65;5.75;;;12.40;99.90;;;;;;5038702;28;20209;-79
2022/06/13 03:09:00;;;;;;;15.27;5.67;;;12.50;99.90;;;;;;5040003;28;20455;-79
2022/06/13 03:11:43;;;;;;;12.87;5.10;;;12.60;99.90;;;;;;5038712;28;20213;-76
2022/06/13 03:14:19;;;;;;;11.97;5.50;;;12.70;99.90;;;;;;5039401;28;20216;-76
2022/06/13 03:16:53;;;;;;;13.60;5.47;;;12.60;99.90;;;;;;5038128;28;20766;-76
2022/06/13 03:19:26;;;;;;;17.23;6.30;;;12.70;99.90;;;;;;5021854;28;20219;-76
2022/06/13 03:22:00;;;;;;;14.67;5.50;;;12.60;99.90;;;;;;5038667;28;20339;-77
2022/06/13 03:24:30;;;;;;;16.07;5.70;;;12.80;99.90;;;;;;5021213;28;20230;-76
2022/06/13 03:27:02;;;;;;;12.87;5.23;;;12.90;99.90;;;;;;5037320;28;20219;-76
2022/06/13 03:29:33;;;;;;;18.70;6.20;;;12.90;99.90;;;;;;5040107;28;20210;-76
2022/06/13 03:32:06;;;;;;;12.23;5.37;;;12.90;99.90;;;;;;5042283;28;20169;-77
2022/06/13 03:34:40;;;;;;;15.67;5.90;;;12.90;99.90;;;;;;5040043;28;20230;-76
2022/06/13 03:37:11;;;;;;;15.70;6.50;;;13.00;99.90;;;;;;5038215;28;20227;-77
2022/06/13 03:39:42;;;;;;;14.97;5.77;;;12.90;99.90;;;;;;5038218;28;20335;-77
2022/06/13 03:42:13;;;;;;;16.17;6.60;;;12.90;99.90;;;;;;5040255;28;20230;-76
2022/06/13 03:44:47;;;;;;;18.13;7.00;;;13.00;99.90;;;;;;5047310;28;20707;-76
2022/06/13 03:47:19;;;;;;;16.93;6.53;;;12.90;99.90;;;;;;5044139;28;20202;-76
2022/06/13 03:49:54;;;;;;;17.17;6.57;;;12.90;99.90;;;;;;5046917;28;20217;-76
2022/06/13 03:52:21;;;;;;;15.87;6.20;;;12.90;99.90;;;;;;5046776;28;20718;-76
2022/06/13 03:54:52;;;;;;;16.77;6.23;;;12.90;99.90;;;;;;5028101;28;20874;-76
2022/06/13 03:57:25;;;;;;;16.60;6.27;;;12.90;99.90;;;;;;5045699;28;20564;-76
2022/06/13 03:59:56;;;;;;;15.93;6.40;;;12.90;99.90;;;;;;5034086;28;20242;-76
2022/06/13 04:02:27;;;;;;;14.90;6.63;;;13.00;99.90;;;;;;5045612;28;20257;-76
2022/06/13 04:04:55;;;;;;;16.63;6.00;;;13.10;99.90;;;;;;5037783;28;20214;-76
2022/06/13 04:07:25;;;;;;;13.53;6.00;;;13.10;99.90;;;;;;5045439;28;20211;-77
2022/06/13 04:09:54;;;;;;;13.17;5.97;;;13.20;99.90;;;;;;5021987;28;20578;-76
2022/06/13 04:12:48;;;;;;;15.57;5.97;;;13.40;99.90;;;;;;5041631;28;20232;-76
2022/06/13 04:15:36;;;;;;;17.43;5.90;;;13.50;99.90;;;;;;5041463;28;20728;-77
2022/06/13 04:18:09;;;;;;;16.93;6.10;;;13.50;99.90;;;;;;5041939;28;20883;-77
2022/06/13 04:20:49;;;;;;;17.93;6.80;;;13.50;99.90;;;;;;5043559;28;20206;-77
2022/06/13 04:23:22;;;;;;;17.00;7.07;;;13.50;99.90;;;;;;5012027;28;20620;-77
2022/06/13 04:25:57;;;;;;;18.20;7.27;;;13.60;99.90;;;;;;5024139;28;20214;-76
2022/06/13 04:28:33;;;;;;;19.97;8.17;;;13.60;99.90;;;;;;5042658;28;20704;-76
2022/06/13 04:31:03;;;;;;;23.83;8.27;;;13.60;99.90;;;;;;5044287;28;20290;-76
2022/06/13 04:33:36;;;;;;;23.57;8.20;;;13.70;99.90;;;;;;5044700;28;20239;-75
2022/06/13 04:36:07;;;;;;;19.50;9.10;;;13.80;99.90;;;;;;5016823;28;20868;-76
2022/06/13 04:38:34;;;;;;;22.37;8.07;;;13.80;99.90;;;;;;5043160;28;20220;-76
2022/06/13 04:41:03;;;;;;;19.20;8.30;;;13.90;99.90;;;;;;5043648;28;20208;-75
2022/06/13 04:43:36;;;;;;;18.00;8.23;;;13.90;99.90;;;;;;5046848;28;20235;-75
2022/06/13 04:46:08;;;;;;;25.40;8.77;;;14.00;99.90;;;;;;5027822;28;20213;-75
2022/06/13 04:48:37;;;;;;;25.40;8.57;;;14.10;99.90;;;;;;5043048;28;20250;-76
2022/06/13 04:51:10;;;;;;;26.03;9.07;;;14.10;99.90;;;;;;5046432;28;20800;-76
2022/06/13 04:53:40;;;;;;;22.73;8.77;;;14.20;99.90;;;;;;5046709;28;20244;-76
2022/06/13 04:56:07;;;;;;;20.03;7.77;;;14.30;99.90;;;;;;5041521;28;20239;-76
2022/06/13 04:58:36;;;;;;;19.00;7.20;;;14.40;99.90;;;;;;5040931;28;20297;-76
2022/06/13 05:01:07;;;;;;;20.47;8.73;;;14.50;99.90;;;;;;5044357;28;20239;-76
2022/06/13 05:03:41;;;;;;;20.80;9.20;;;14.60;99.90;;;;;;5047600;28;20232;-76
2022/06/13 05:06:20;;;;;;;20.30;7.80;;;14.70;99.90;;;;;;5049444;28;20220;-76
2022/06/13 05:08:54;;;;;;;17.97;7.80;;;14.80;99.90;;;;;;5043806;28;20207;-76
2022/06/13 05:11:27;;;;;;;21.83;7.00;;;14.90;99.90;;;;;;5042431;28;20230;-75
2022/06/13 05:14:01;;;;;;;18.20;7.57;;;14.80;99.90;;;;;;5044575;28;20247;-76
2022/06/13 05:16:41;;;;;;;18.27;7.03;;;15.00;99.90;;;;;;5041353;28;20233;-76
2022/06/13 05:19:36;;;;;;;19.63;7.07;;;15.10;99.90;;;;;;5050952;28;20201;-75
2022/06/13 05:22:18;;;;;;;13.47;5.90;;;15.40;99.90;;;;;;5053183;28;20258;-77
2022/06/13 05:25:16;;;;;;;11.37;5.57;;;15.50;99.90;;;;;;5063605;28;20211;-76
2022/06/13 05:27:43;;;;;;;13.40;5.80;;;15.60;99.90;;;;;;5059729;28;20237;-76
2022/06/13 05:30:14;;;;;;;15.13;5.70;;;15.60;99.90;;;;;;5045933;28;20243;-77
2022/06/13 05:32:42;;;;;;;16.10;5.83;;;15.70;99.90;;;;;;5045633;28;20544;-77
2022/06/13 05:35:13;;;;;;;15.47;5.93;;;15.70;99.90;;;;;;5052361;28;20212;-77
2022/06/13 05:37:42;;;;;;;18.43;5.90;;;15.60;99.90;;;;;;5043538;28;20240;-77
2022/06/13 05:40:14;;;;;;;12.93;6.07;;;15.60;99.90;;;;;;5044501;28;20220;-78
2022/06/13 05:42:41;;;;;;;14.73;6.33;;;;;;;;;;5049255;28;20225;-77
2022/06/13 05:45:12;;;;;;;15.60;7.23;;;15.50;99.90;;;;;;5049326;28;20224;-77
2022/06/13 05:47:40;;;;;;;15.37;6.07;;;15.60;99.90;;;;;;5047720;28;20308;-77
2022/06/13 05:50:07;;;;;;;18.10;6.20;;;;;;;;;;5052453;28;20212;-77
2022/06/13 05:52:34;;;;;;;16.13;6.27;;;15.60;99.90;;;;;;5048808;28;20229;-76
2022/06/13 05:55:03;;;;;;;16.60;6.63;;;15.50;99.90;;;;;;5046972;28;20205;-76
2022/06/13 05:57:30;;;;;;;13.43;6.13;;;15.50;99.90;;;;;;5050313;28;20216;-76
2022/06/13 05:59:57;;;;;;;14.07;6.40;;;15.50;99.90;;;;;;5051707;28;20573;-76
2022/06/13 06:02:23;;;;;;;15.53;6.30;;;15.50;99.90;;;;;;5051010;28;20225;-76
2022/06/13 06:04:50;;;;;;;16.53;6.60;;;15.60;99.90;;;;;;5050560;28;20760;-76
2022/06/13 06:07:17;;;;;;;18.30;6.83;;;15.70;99.90;;;;;;5043411;28;20216;-76
2022/06/13 06:09:44;;;;;;;18.60;7.10;;;15.80;99.90;;;;;;5040529;28;20205;-77
2022/06/13 06:12:12;;;;;;;16.63;7.20;;;15.80;99.90;;;;;;5047761;28;20229;-76
2022/06/13 06:14:39;;;;;;;18.53;7.93;;;15.80;99.90;;;;;;5052434;28;20219;-77
2022/06/13 06:17:06;;;;;;;18.23;7.47;;;16.00;99.90;;;;;;5057249;28;20232;-77
2022/06/13 06:19:35;;;;;;;16.83;6.43;;;16.60;99.90;;;;;;5069851;28;20209;-77
2022/06/13 06:22:02;;;;;;;17.53;7.00;;;17.10;99.90;;;;;;5061929;28;20232;-75
2022/06/13 06:24:29;;;;;;;14.17;7.53;;;17.50;99.90;;;;;;5045893;28;20209;-76
2022/06/13 06:26:59;;;;;;;20.27;8.03;;;17.80;99.90;;;;;;5046170;28;20197;-77
2022/06/13 06:29:27;;;;;;;18.23;7.27;;;18.20;99.90;;;;;;5051964;28;20256;-77
2022/06/13 06:31:54;;;;;;;17.17;7.33;;;18.30;99.90;;;;;;5050615;28;20244;-77
2022/06/13 06:34:21;;;;;;;17.17;7.33;;;18.50;99.90;;;;;;5053283;28;20301;-77
2022/06/13 06:36:48;;;;;;;19.53;8.33;;;18.90;99.90;;;;;;5047688;28;20229;-77
2022/06/13 06:39:16;;;;;;;16.47;7.80;;;19.20;99.90;;;;;;5042372;28;20592;-77
2022/06/13 06:41:44;;;;;;;17.83;8.13;;;19.40;99.90;;;;;;5027170;28;20253;-76
2022/06/13 06:44:11;;;;;;;21.97;9.03;;;19.40;99.90;;;;;;5038515;28;20205;-77
2022/06/13 06:46:39;;;;;;;17.97;8.23;;;19.60;99.90;;;;;;5034598;28;20201;-77
2022/06/13 06:49:06;;;;;;;19.63;8.80;;;20.60;99.90;;;;;;5041818;28;20737;-77
2022/06/13 06:51:34;;;;;;;23.73;8.93;;;20.30;99.90;;;;;;5044943;28;20212;-77
2022/06/13 07:02:16;;;;;;;20.33;8.70;;;21.10;99.90;;;;;;5044787;28;20306;-78
2022/06/13 07:04:43;;;;;;;18.80;8.50;;;21.40;99.90;;;;;;5041254;28;20263;-77
2022/06/13 07:07:09;;;;;;;17.73;7.83;;;21.50;99.90;;;;;;5050013;28;20209;-77
2022/06/13 07:09:36;;;;;;;18.35;7.85;;;21.40;99.90;;;;;;5050516;28;20204;-77
2022/06/13 07:12:04;;;;;;;18.47;8.27;;;21.20;99.90;;;;;;5027241;28;20245;-77
2022/06/13 07:14:33;;;;;;;20.83;9.10;;;21.20;99.90;;;;;;5047586;28;20201;-77
2022/06/13 07:17:02;;;;;;;15.77;7.73;;;21.20;99.90;;;;;;5046233;28;20233;-77
2022/06/13 07:19:30;;;;;;;18.90;8.03;;;21.50;99.90;;;;;;5042437;28;20227;-78
2022/06/13 07:21:58;;;;;;;16.77;8.90;;;21.30;99.90;;;;;;5043420;28;20240;-77
2022/06/13 07:24:24;;;;;;;20.27;9.43;;;21.70;99.90;;;;;;5043551;28;20850;-78
2022/06/13 07:26:51;;;;;;;21.03;10.10;;;21.80;99.90;;;;;;5047886;28;20197;-77
2022/06/13 07:29:19;;;;;;;17.67;9.90;;;21.70;99.90;;;;;;5046878;28;20234;-78
2022/06/13 07:31:49;;;;;;;21.60;9.87;;;22.50;99.90;;;;;;5039688;28;20230;-78
2022/06/13 07:34:18;;;;;;;21.47;9.60;;;22.90;99.90;;;;;;5041976;28;20201;-78
2022/06/13 07:36:47;;;;;;;19.73;9.40;;;22.80;99.90;;;;;;5041954;28;20225;-77
2022/06/13 07:39:15;;;;;;;19.07;9.37;;;22.70;99.90;;;;;;5040163;28;20681;-78
2022/06/13 07:41:42;;;;;;;18.03;9.10;;;23.80;99.90;;;;;;5044725;28;20251;-78
2022/06/13 07:44:14;;;;;;;20.70;8.40;;;24.00;99.90;;;;;;5041576;28;20212;-78
2022/06/13 07:46:43;;;;;;;18.17;9.17;;;25.20;99.90;;;;;;5039988;28;20260;-78
2022/06/13 07:49:10;;;;;;;17.87;8.90;;;25.70;99.90;;;;;;5038003;28;20848;-78
2022/06/13 07:51:36;;;;;;;15.40;7.80;;;26.00;99.90;;;;;;5033124;28;20210;-78
2022/06/13 07:54:05;;;;;;;22.30;8.93;;;27.00;99.90;;;;;;5041257;28;20701;-77
2022/06/13 07:56:33;;;;;;;16.38;8.02;;;26.90;99.90;;;;;;5036617;28;21393;-79
2022/06/13 07:59:00;;;;;;;;;;;27.60;99.90;;;;;;5045587;28;20217;-79
2022/06/13 08:01:27;;;;;;;;;;;29.20;99.90;;;;;;5041350;28;20079;-79
2022/06/13 08:03:55;;;;;;;15.00;7.60;;;29.30;99.90;;;;;;5045909;28;19958;-79
2022/06/13 08:06:23;;;;;;;17.42;7.78;;;28.80;99.90;;;;;;5048760;28;20205;-79
2022/06/13 08:08:50;;;;;;;;;;;29.20;99.90;;;;;;5030174;28;20217;-77
2022/06/13 08:11:19;;;;;;;;;;;30.50;99.90;;;;;;5045031;28;20302;-77
2022/06/13 08:13:46;;;;;;;;;;;30.10;99.90;;;;;;5049489;28;20452;-77
2022/06/13 08:16:13;;;;;;;19.15;8.82;;;29.80;99.90;;;;;;5047190;28;21104;-78
2022/06/13 08:18:42;;;;;;;22.80;9.35;;;29.20;99.90;;;;;;5050216;28;20300;-78
2022/06/13 08:21:09;;;;;;;19.30;8.20;;;28.20;99.60;;;;;;5048078;28;20235;-78
2022/06/13 08:23:36;;;;;;;17.33;7.57;;;27.10;99.80;;;;;;5047465;28;20244;-78
2022/06/13 08:26:03;;;;;;;22.43;8.63;;;26.30;99.90;;;;;;5045767;28;20301;-78
2022/06/13 08:28:31;;;;;;;21.73;7.83;;;25.40;99.90;;;;;;5047328;28;20219;-77
2022/06/13 08:31:02;;;;;;;17.83;7.13;;;24.80;99.90;;;;;;5029083;28;20699;-77
2022/06/13 08:33:29;;;;;;;20.73;7.73;;;24.40;99.90;;;;;;5047134;28;20949;-77
2022/06/13 08:35:57;;;;;;;19.80;6.80;;;;;;;;;;5040836;28;20208;-77
2022/06/13 08:38:24;;;;;;;20.13;7.47;;;24.10;99.90;;;;;;5026077;28;20219;-77
2022/06/13 08:40:59;;;;;;;19.70;8.17;;;23.90;99.90;;;;;;5047058;28;20205;-77
2022/06/13 08:43:46;;;;;;;21.70;8.20;;;23.00;99.90;;;;;;5041797;28;20848;-77
2022/06/13 08:46:20;;;;;;;16.93;6.63;;;22.90;99.90;;;;;;5043871;28;20206;-77
2022/06/13 08:48:47;;;;;;;14.33;6.20;;;22.40;99.90;;;;;;5049117;28;20205;-77
2022/06/13 08:51:19;;;;;;;14.97;7.20;;;21.90;99.90;;;;;;5031786;22;20248;-80
2022/06/13 08:53:55;;;;;;;18.80;6.67;;;21.70;99.90;;;;;;5003091;28;20269;-80
2022/06/13 08:56:25;;;;;;;17.37;6.87;;;21.50;99.90;;;;;;5000836;28;20244;-80
2022/06/13 08:58:57;;;;;;;20.50;7.63;;;21.40;99.90;;;;;;4998798;28;20251;-81
2022/06/13 09:01:31;;;;;;;11.60;5.87;;;20.80;99.90;;;;;;5012806;28;20214;-81
2022/06/13 09:04:04;;;;;;;13.33;5.70;;;21.80;99.90;;;;;;5009345;28;20225;-81
2022/06/13 09:06:40;;;;;;;10.93;5.45;;;23.00;99.90;;;;;;5003028;28;20194;-82
2022/06/13 09:09:13;;;;;;;15.23;5.85;;;24.80;99.90;;;;;;4989019;28;20238;-82
2022/06/13 09:11:47;;;;;;;14.60;5.40;;;26.80;99.90;;;;;;4995873;28;20279;-81
2022/06/13 09:14:19;;;;;;;;;;;27.80;99.90;;;;;;5002886;28;20245;-81
2022/06/13 09:16:48;;;;;;;;;;;28.00;98.90;;;;;;4996475;28;19921;-81
2022/06/13 09:19:18;;;;;;;;;;;27.80;97.70;;;;;;5012176;28;19956;-81
2022/06/13 09:21:49;;;;;;;;;;;27.60;96.10;;;;;;5011107;28;19929;-81
2022/06/13 09:24:23;;;;;;;12.10;5.30;;;27.40;95.50;;;;;;4996250;28;20381;-80
2022/06/13 09:26:53;;;;;;;14.13;5.25;;;26.90;95.30;;;;;;5002413;28;20480;-81
2022/06/13 09:29:30;;;;;;;12.80;5.50;;;26.90;95.50;;;;;;5002803;28;20286;-82
2022/06/13 09:32:03;;;;;;;8.13;4.43;;;27.50;95.80;;;;;;5003116;28;20221;-81
2022/06/13 09:34:36;;;;;;;12.30;4.72;;;28.20;95.60;;;;;;4990918;28;20145;-81
2022/06/13 09:37:09;;;;;;;14.38;5.78;;;28.70;93.10;;;;;;4989219;28;20232;-80
2022/06/13 09:39:36;;;;;;;15.35;5.82;;;28.70;92.20;;;;;;5001348;28;20218;-80
2022/06/13 09:42:32;;;;;;;13.48;4.93;;;27.10;91.50;;;;;;4997431;28;20214;-80
2022/06/13 09:45:28;;;;;;;13.23;5.60;;;26.90;91.20;;;;;;5002646;28;20305;-80
2022/06/13 09:48:04;;;;;;;15.07;5.30;;;25.00;91.70;;;;;;5023442;28;20227;-79
2022/06/13 09:50:43;;;;;;;17.23;5.57;;;24.60;92.50;;;;;;4994519;28;20217;-79
2022/06/13 09:53:18;;;;;;;13.00;4.83;;;23.90;93.20;;;;;;4999938;28;20894;-80
2022/06/13 09:55:55;;;;;;;13.10;4.93;;;23.50;93.40;;;;;;4989649;28;20685;-81
2022/06/13 09:58:32;;;;;;;11.70;4.50;;;23.10;93.80;;;;;;4997514;28;20243;-80
2022/06/13 10:01:07;;;;;;;13.97;5.27;;;22.90;94.60;;;;;;4998306;28;20293;-81
2022/06/13 10:03:44;;;;;;;15.07;5.27;;;22.80;95.00;;;;;;4997915;28;20218;-80
2022/06/13 10:06:18;;;;;;;11.37;5.13;;;22.70;94.90;;;;;;5004308;28;20222;-81
2022/06/13 10:08:55;;;;;;;14.13;5.33;;;22.30;94.70;;;;;;5004540;28;20234;-80
2022/06/13 10:11:32;;;;;;;11.83;4.73;;;22.00;95.10;;;;;;4991479;28;20355;-81
2022/06/13 10:14:22;;;;;;;13.57;4.97;;;21.10;95.10;;;;;;4981461;28;20860;-79
2022/06/13 10:17:02;;;;;;;15.13;5.30;;;20.90;96.20;;;;;;5013042;28;20233;-80
2022/06/13 10:19:38;;;;;;;19.77;5.00;;;20.90;96.50;;;;;;5002860;28;20226;-79
2022/06/13 10:22:12;;;;;;;14.33;4.67;;;21.50;97.00;;;;;;4997826;28;20309;-78
2022/06/13 10:24:50;;;;;;;14.93;5.10;;;21.50;97.20;;;;;;4995310;28;20215;-78
2022/06/13 10:27:30;;;;;;;10.60;3.90;;;22.00;96.90;;;;;;4973962;28;20226;-79
2022/06/13 10:30:15;;;;;;;11.50;3.80;;;22.30;95.70;;;;;;4994902;28;20288;-78
2022/06/13 10:33:05;;;;;;;10.57;3.87;;;21.80;94.00;;;;;;4995360;28;20222;-80
2022/06/13 10:35:46;;;;;;;9.30;4.07;;;22.50;94.00;;;;;;5004087;28;20211;-83
2022/06/13 10:38:26;;;;;;;15.00;4.30;;;22.50;93.60;;;;;;4998332;28;20238;-83
2022/06/13 10:40:54;;;;;;;10.17;3.67;;;22.40;92.50;;;;;;5011194;28;20262;-81
2022/06/13 10:43:22;;;;;;;8.73;3.73;;;22.40;92.70;;;;;;4998270;28;20211;-83
2022/06/13 10:45:49;;;;;;;10.60;3.63;;;22.40;92.40;;;;;;5012001;28;20210;-82
2022/06/13 10:48:23;;;;;;;12.27;3.60;;;22.50;92.80;;;;;;4992331;28;20245;-83
2022/06/13 10:50:55;;;;;;;12.53;3.57;;;22.60;92.50;;;;;;5004926;28;20214;-83
2022/06/13 10:53:27;;;;;;;8.83;3.60;;;22.60;92.20;;;;;;4997339;28;20264;-81
2022/06/13 10:55:58;;;;;;;9.93;3.87;;;22.50;92.30;;;;;;4994452;28;20284;-82
2022/06/13 10:58:29;;;;;;;9.23;3.87;;;22.30;92.20;;;;;;4996202;28;20242;-83
2022/06/13 11:01:09;;;;;;;9.77;3.83;;;22.20;92.60;;;;;;4988394;28;20245;-83
2022/06/13 11:03:43;;;;;;;10.50;3.93;;;22.30;93.10;;;;;;4995690;28;20210;-84
2022/06/13 11:06:19;;;;;;;10.77;3.70;;;22.10;92.60;;;;;;4988962;28;20257;-83
2022/06/13 11:08:47;;;;;;;12.77;3.90;;;22.00;92.60;;;;;;4998170;28;20240;-81
2022/06/13 11:11:29;;;;;;;9.73;3.70;;;21.80;92.90;;;;;;4992516;28;20218;-83
2022/06/13 11:13:56;;;;;;;10.43;4.37;;;21.80;93.10;;;;;;5008181;28;20218;-80
2022/06/13 11:24:51;;;;;;;9.33;3.57;;;22.30;92.10;;;;;;5008350;28;20198;-79
2022/06/13 11:30:40;;;;;;;9.70;3.30;;;22.90;92.10;;;;;;5004449;28;20219;-81
2022/06/13 11:33:16;;;;;;;11.80;3.23;;;23.60;91.70;;;;;;4986883;28;20209;-81
2022/06/13 11:35:47;;;;;;;8.47;3.20;;;24.10;90.40;;;;;;5001669;28;20218;-80
2022/06/13 11:38:18;;;;;;;7.23;3.20;;;24.10;88.60;;;;;;5007008;28;20245;-80
2022/06/13 11:40:48;;;;;;;7.50;2.73;;;24.10;87.80;;;;;;4998648;28;20214;-80
2022/06/13 11:43:20;;;;;;;7.13;2.73;;;23.80;86.80;;;;;;5004002;28;20305;-80
2022/06/13 11:45:56;;;;;;;8.23;2.73;;;23.50;85.80;;;;;;5001295;28;20217;-79
2022/06/13 11:48:26;;;;;;;7.57;3.23;;;23.20;84.80;;;;;;4996740;28;20753;-79
2022/06/13 11:51:01;;;;;;;6.30;2.87;;;23.10;85.30;;;;;;4981508;28;20248;-81
2022/06/13 11:53:38;;;;;;;7.30;2.90;;;23.20;85.30;;;;;;4986538;28;20206;-80
2022/06/13 11:56:21;;;;;;;6.13;2.63;;;23.20;84.10;;;;;;5024993;28;20222;-81
2022/06/13 11:58:50;;;;;;;7.23;2.63;;;23.20;85.20;;;;;;5009193;28;20242;-80
2022/06/13 12:01:30;;;;;;;8.83;2.93;;;23.80;85.10;;;;;;4992112;28;20285;-80
2022/06/13 12:04:14;;;;;;;9.57;3.30;;;23.80;85.80;;;;;;5000700;28;20592;-80
2022/06/13 12:06:46;;;;;;;8.63;3.03;;;23.80;84.40;;;;;;4987469;28;20230;-80
2022/06/13 12:09:20;;;;;;;8.70;3.17;;;23.50;84.40;;;;;;5015044;28;20226;-80
2022/06/13 12:11:54;;;;;;;5.43;2.57;;;23.50;85.30;;;;;;4998777;28;20209;-80
2022/06/13 12:14:21;;;;;;;5.50;2.67;;;23.70;86.00;;;;;;5019170;28;20193;-80
2022/06/13 12:16:57;;;;;;;7.23;2.90;;;23.60;83.00;;;;;;4996359;28;20218;-80
2022/06/13 12:19:33;;;;;;;6.47;2.60;;;23.60;83.70;;;;;;4995335;28;20202;-80
2022/06/13 12:22:08;;;;;;;6.30;2.50;;;23.40;85.00;;;;;;4981315;28;20253;-80
2022/06/13 12:24:48;;;;;;;8.00;2.30;;;23.40;85.90;;;;;;4980903;28;20194;-81
2022/06/13 12:27:34;;;;;;;7.63;2.47;;;23.70;86.70;;;;;;4981119;28;20722;-80
2022/06/13 12:30:19;;;;;;;5.07;2.40;;;23.80;87.10;;;;;;4980940;28;20234;-80
2022/06/13 12:32:52;;;;;;;6.70;2.47;;;24.60;84.90;;;;;;4980208;28;20207;-80
2022/06/13 12:35:34;;;;;;;5.20;2.30;;;24.60;85.50;;;;;;4996456;28;20253;-80
2022/06/13 12:38:18;;;;;;;5.60;2.33;;;24.70;84.50;;;;;;4980473;28;20261;-80
2022/06/13 12:40:59;;;;;;;9.53;3.17;;;24.40;82.70;;;;;;5002836;28;20237;-80
2022/06/13 12:43:43;;;;;;;8.70;3.00;;;24.40;82.30;;;;;;4999380;28;20240;-79
2022/06/13 12:46:43;;;;;;;8.93;2.97;;;24.10;82.90;;;;;;4991898;28;20293;-80
2022/06/13 12:49:27;;;;;;;6.47;2.63;;;24.00;81.90;;;;;;4987631;28;20305;-80
2022/06/13 12:52:02;;;;;;;8.90;2.90;;;24.00;79.50;;;;;;4984372;28;20210;-80
2022/06/13 12:55:10;;;;;;;7.73;2.97;;;23.80;78.20;;;;;;5001875;28;20204;-80
2022/06/13 12:58:02;;;;;;;5.63;2.70;;;23.60;78.00;;;;;;4914810;29;20230;-84
2022/06/13 13:00:39;;;;;;;7.33;2.93;;;23.60;79.00;;;;;;4997868;28;20209;-82
2022/06/13 13:03:29;;;;;;;6.40;2.77;;;23.70;81.30;;;;;;4990029;28;20259;-84
2022/06/13 13:06:08;;;;;;;6.67;2.70;;;23.80;80.50;;;;;;5003398;28;20217;-82
2022/06/13 13:08:49;;;;;;;6.10;2.70;;;23.80;80.80;;;;;;4997266;28;20230;-82
2022/06/13 13:11:32;;;;;;;8.40;2.90;;;24.00;81.90;;;;;;5014494;28;20237;-83
2022/06/13 13:14:07;;;;;;;7.90;2.93;;;23.90;78.80;;;;;;4989996;28;20318;-84
2022/06/13 13:16:47;;;;;;;8.63;2.87;;;23.60;78.70;;;;;;4996302;28;20218;-82
2022/06/13 13:19:34;;;;;;;7.20;2.80;;;23.20;79.80;;;;;;4996781;28;20247;-82
2022/06/13 13:22:10;;;;;;;8.33;3.03;;;23.00;80.00;;;;;;4990256;28;20213;-83
2022/06/13 13:25:04;;;;;;;7.40;3.13;;;22.90;79.70;;;;;;5012960;28;20264;-83
2022/06/13 13:27:39;;;;;;;7.87;2.97;;;23.40;81.00;;;;;;5001724;28;20334;-82
2022/06/13 13:30:16;;;;;;;6.97;2.77;;;23.60;81.10;;;;;;4992746;28;20225;-82
2022/06/13 13:33:02;;;;;;;5.13;2.50;;;23.90;80.40;;;;;;5002325;28;20215;-78
2022/06/13 13:35:36;;;;;;;8.53;2.97;;;24.20;80.50;;;;;;4997210;28;20295;-78